sensor_id;sensor_type;location;lat;lon;timestamp;temperature;humidity
55777;DHT22;54079;44.540;18.784;2023-02-05T00:00:05;1.60;71.20
55777;DHT22;54079;44.540;18.784;2023-02-05T00:02:31;1.70;70.10
55777;DHT22;54079;44.540;18.784;2023-02-05T00:04:57;1.70;67.70
55777;DHT22;54079;44.540;18.784;2023-02-05T00:07:23;1.70;70.20
55777;DHT22;54079;44.540;18.784;2023-02-05T00:09:49;1.60;68.00
55777;DHT22;54079;44.540;18.784;2023-02-05T00:12:15;1.60;69.10
55777;DHT22;54079;44.540;18.784;2023-02-05T00:14:41;1.60;68.50
55777;DHT22;54079;44.540;18.784;2023-02-05T00:17:07;1.60;68.90
55777;DHT22;54079;44.540;18.784;2023-02-05T00:19:33;1.60;69.20
55777;DHT22;54079;44.540;18.784;2023-02-05T00:21:59;1.70;68.70
55777;DHT22;54079;44.540;18.784;2023-02-05T00:24:25;1.60;67.50
55777;DHT22;54079;44.540;18.784;2023-02-05T00:26:51;1.40;68.10
55777;DHT22;54079;44.540;18.784;2023-02-05T00:29:17;1.40;69.60
55777;DHT22;54079;44.540;18.784;2023-02-05T00:31:43;1.30;70.60
55777;DHT22;54079;44.540;18.784;2023-02-05T00:34:08;1.30;70.70
55777;DHT22;54079;44.540;18.784;2023-02-05T00:36:34;1.30;72.30
55777;DHT22;54079;44.540;18.784;2023-02-05T00:39:00;1.30;73.40
55777;DHT22;54079;44.540;18.784;2023-02-05T00:41:26;1.20;71.50
55777;DHT22;54079;44.540;18.784;2023-02-05T00:43:52;1.30;73.30
55777;DHT22;54079;44.540;18.784;2023-02-05T00:46:18;1.30;72.60
55777;DHT22;54079;44.540;18.784;2023-02-05T00:48:44;1.10;71.10
55777;DHT22;54079;44.540;18.784;2023-02-05T00:51:10;1.20;72.40
55777;DHT22;54079;44.540;18.784;2023-02-05T00:53:37;1.30;72.30
55777;DHT22;54079;44.540;18.784;2023-02-05T00:56:03;1.40;72.50
55777;DHT22;54079;44.540;18.784;2023-02-05T00:58:29;1.50;72.20
55777;DHT22;54079;44.540;18.784;2023-02-05T01:00:56;1.60;71.00
55777;DHT22;54079;44.540;18.784;2023-02-05T01:03:22;1.40;71.30
55777;DHT22;54079;44.540;18.784;2023-02-05T01:05:48;1.50;70.70
55777;DHT22;54079;44.540;18.784;2023-02-05T01:08:14;1.40;70.60
55777;DHT22;54079;44.540;18.784;2023-02-05T01:10:45;1.30;70.50
55777;DHT22;54079;44.540;18.784;2023-02-05T01:13:11;1.30;71.60
55777;DHT22;54079;44.540;18.784;2023-02-05T01:15:37;1.30;70.40
55777;DHT22;54079;44.540;18.784;2023-02-05T01:18:03;1.30;70.70
55777;DHT22;54079;44.540;18.784;2023-02-05T01:20:29;1.20;70.60
55777;DHT22;54079;44.540;18.784;2023-02-05T01:22:55;1.30;70.00
55777;DHT22;54079;44.540;18.784;2023-02-05T01:25:21;1.20;70.50
55777;DHT22;54079;44.540;18.784;2023-02-05T01:27:47;1.20;69.50
55777;DHT22;54079;44.540;18.784;2023-02-05T01:30:13;1.10;68.90
55777;DHT22;54079;44.540;18.784;2023-02-05T01:32:40;1.10;71.20
55777;DHT22;54079;44.540;18.784;2023-02-05T01:35:07;1.00;71.00
55777;DHT22;54079;44.540;18.784;2023-02-05T01:37:33;1.00;70.90
55777;DHT22;54079;44.540;18.784;2023-02-05T01:39:59;0.90;71.70
55777;DHT22;54079;44.540;18.784;2023-02-05T01:42:28;0.90;71.40
55777;DHT22;54079;44.540;18.784;2023-02-05T01:45:28;0.80;71.20
55777;DHT22;54079;44.540;18.784;2023-02-05T01:48:03;0.70;71.80
55777;DHT22;54079;44.540;18.784;2023-02-05T01:50:35;0.70;71.80
55777;DHT22;54079;44.540;18.784;2023-02-05T01:53:05;0.80;71.70
55777;DHT22;54079;44.540;18.784;2023-02-05T01:55:35;0.90;72.10
55777;DHT22;54079;44.540;18.784;2023-02-05T01:58:03;0.80;70.70
55777;DHT22;54079;44.540;18.784;2023-02-05T02:00:29;0.70;72.20
55777;DHT22;54079;44.540;18.784;2023-02-05T02:02:55;0.70;71.30
55777;DHT22;54079;44.540;18.784;2023-02-05T02:05:21;0.50;70.90
55777;DHT22;54079;44.540;18.784;2023-02-05T02:07:47;0.50;72.30
55777;DHT22;54079;44.540;18.784;2023-02-05T02:10:14;0.50;71.10
55777;DHT22;54079;44.540;18.784;2023-02-05T02:12:43;0.50;71.70
55777;DHT22;54079;44.540;18.784;2023-02-05T02:15:17;0.40;72.10
55777;DHT22;54079;44.540;18.784;2023-02-05T02:17:46;0.50;71.40
55777;DHT22;54079;44.540;18.784;2023-02-05T02:20:15;0.50;71.40
55777;DHT22;54079;44.540;18.784;2023-02-05T02:22:57;0.60;71.60
55777;DHT22;54079;44.540;18.784;2023-02-05T02:25:46;0.60;70.40
55777;DHT22;54079;44.540;18.784;2023-02-05T02:28:38;0.70;71.20
55777;DHT22;54079;44.540;18.784;2023-02-05T02:31:11;0.80;70.70
55777;DHT22;54079;44.540;18.784;2023-02-05T02:34:10;0.80;70.90
55777;DHT22;54079;44.540;18.784;2023-02-05T02:41:44;0.80;71.70
55777;DHT22;54079;44.540;18.784;2023-02-05T02:46:44;0.70;68.60
55777;DHT22;54079;44.540;18.784;2023-02-05T02:49:31;0.80;69.50
55777;DHT22;54079;44.540;18.784;2023-02-05T02:52:02;0.90;69.40
55777;DHT22;54079;44.540;18.784;2023-02-05T02:54:29;0.90;70.00
55777;DHT22;54079;44.540;18.784;2023-02-05T02:56:57;0.90;68.60
55777;DHT22;54079;44.540;18.784;2023-02-05T02:59:25;0.90;69.20
55777;DHT22;54079;44.540;18.784;2023-02-05T03:01:57;0.90;70.60
55777;DHT22;54079;44.540;18.784;2023-02-05T03:04:38;0.90;68.90
55777;DHT22;54079;44.540;18.784;2023-02-05T03:07:16;1.00;68.50
55777;DHT22;54079;44.540;18.784;2023-02-05T03:12:24;1.20;69.20
55777;DHT22;54079;44.540;18.784;2023-02-05T03:14:51;1.30;69.30
55777;DHT22;54079;44.540;18.784;2023-02-05T03:17:17;1.30;67.40
55777;DHT22;54079;44.540;18.784;2023-02-05T03:19:46;1.30;69.30
55777;DHT22;54079;44.540;18.784;2023-02-05T03:22:13;1.30;69.20
55777;DHT22;54079;44.540;18.784;2023-02-05T03:24:39;1.30;69.10
55777;DHT22;54079;44.540;18.784;2023-02-05T03:27:05;1.30;69.00
55777;DHT22;54079;44.540;18.784;2023-02-05T03:29:34;1.30;68.90
55777;DHT22;54079;44.540;18.784;2023-02-05T03:37:39;1.20;69.10
55777;DHT22;54079;44.540;18.784;2023-02-05T03:40:31;1.20;70.00
55777;DHT22;54079;44.540;18.784;2023-02-05T03:43:05;1.00;69.50
55777;DHT22;54079;44.540;18.784;2023-02-05T03:53:45;0.90;70.00
55777;DHT22;54079;44.540;18.784;2023-02-05T03:56:58;1.00;70.90
55777;DHT22;54079;44.540;18.784;2023-02-05T03:59:28;0.90;68.40
55777;DHT22;54079;44.540;18.784;2023-02-05T04:01:55;0.90;70.20
55777;DHT22;54079;44.540;18.784;2023-02-05T04:04:22;0.80;69.20
55777;DHT22;54079;44.540;18.784;2023-02-05T04:06:50;0.90;69.50
55777;DHT22;54079;44.540;18.784;2023-02-05T04:09:17;0.80;68.30
55777;DHT22;54079;44.540;18.784;2023-02-05T04:11:43;0.70;69.70
55777;DHT22;54079;44.540;18.784;2023-02-05T04:14:09;0.50;69.60
55777;DHT22;54079;44.540;18.784;2023-02-05T04:16:35;0.50;70.00
55777;DHT22;54079;44.540;18.784;2023-02-05T04:19:01;0.60;70.80
55777;DHT22;54079;44.540;18.784;2023-02-05T04:21:27;0.60;70.00
55777;DHT22;54079;44.540;18.784;2023-02-05T04:23:53;0.50;70.60
55777;DHT22;54079;44.540;18.784;2023-02-05T04:26:19;0.50;69.70
55777;DHT22;54079;44.540;18.784;2023-02-05T04:28:45;0.50;70.60
55777;DHT22;54079;44.540;18.784;2023-02-05T04:31:12;0.60;69.70
55777;DHT22;54079;44.540;18.784;2023-02-05T04:33:39;0.70;70.70
55777;DHT22;54079;44.540;18.784;2023-02-05T04:36:06;0.80;70.20
55777;DHT22;54079;44.540;18.784;2023-02-05T04:38:33;1.00;68.40
55777;DHT22;54079;44.540;18.784;2023-02-05T04:40:59;0.90;69.00
55777;DHT22;54079;44.540;18.784;2023-02-05T04:43:26;0.80;69.00
55777;DHT22;54079;44.540;18.784;2023-02-05T04:45:52;0.80;69.40
55777;DHT22;54079;44.540;18.784;2023-02-05T04:48:18;0.80;69.10
55777;DHT22;54079;44.540;18.784;2023-02-05T04:50:45;0.90;68.70
55777;DHT22;54079;44.540;18.784;2023-02-05T04:53:12;0.90;69.80
55777;DHT22;54079;44.540;18.784;2023-02-05T04:55:37;0.90;68.90
55777;DHT22;54079;44.540;18.784;2023-02-05T04:58:03;0.90;69.40
55777;DHT22;54079;44.540;18.784;2023-02-05T05:00:29;0.90;69.30
55777;DHT22;54079;44.540;18.784;2023-02-05T05:02:56;0.90;69.60
55777;DHT22;54079;44.540;18.784;2023-02-05T05:05:22;0.90;69.50
55777;DHT22;54079;44.540;18.784;2023-02-05T05:07:48;0.90;69.40
55777;DHT22;54079;44.540;18.784;2023-02-05T05:10:14;0.90;69.60
55777;DHT22;54079;44.540;18.784;2023-02-05T05:12:40;0.90;68.60
55777;DHT22;54079;44.540;18.784;2023-02-05T05:15:07;0.80;68.60
55777;DHT22;54079;44.540;18.784;2023-02-05T05:17:33;0.50;69.50
55777;DHT22;54079;44.540;18.784;2023-02-05T05:20:00;0.60;71.60
55777;DHT22;54079;44.540;18.784;2023-02-05T05:22:26;0.60;70.40
55777;DHT22;54079;44.540;18.784;2023-02-05T05:24:52;0.60;71.10
55777;DHT22;54079;44.540;18.784;2023-02-05T05:27:18;0.60;71.30
55777;DHT22;54079;44.540;18.784;2023-02-05T05:29:45;0.70;70.80
55777;DHT22;54079;44.540;18.784;2023-02-05T05:32:12;0.60;71.90
55777;DHT22;54079;44.540;18.784;2023-02-05T05:34:38;0.60;71.70
55777;DHT22;54079;44.540;18.784;2023-02-05T05:37:04;0.80;71.50
55777;DHT22;54079;44.540;18.784;2023-02-05T05:39:30;0.80;70.80
55777;DHT22;54079;44.540;18.784;2023-02-05T05:42:14;0.80;71.30
55777;DHT22;54079;44.540;18.784;2023-02-05T05:44:58;0.60;73.40
55777;DHT22;54079;44.540;18.784;2023-02-05T05:47:24;0.60;72.60
55777;DHT22;54079;44.540;18.784;2023-02-05T05:49:50;0.60;72.90
55777;DHT22;54079;44.540;18.784;2023-02-05T05:52:16;0.60;73.00
55777;DHT22;54079;44.540;18.784;2023-02-05T05:54:42;0.60;72.60
55777;DHT22;54079;44.540;18.784;2023-02-05T05:57:08;0.70;73.00
55777;DHT22;54079;44.540;18.784;2023-02-05T05:59:34;0.50;73.50
55777;DHT22;54079;44.540;18.784;2023-02-05T06:02:01;0.20;76.80
55777;DHT22;54079;44.540;18.784;2023-02-05T06:04:28;0.20;77.70
55777;DHT22;54079;44.540;18.784;2023-02-05T06:06:54;0.10;80.10
55777;DHT22;54079;44.540;18.784;2023-02-05T06:09:20;-0.10;80.60
55777;DHT22;54079;44.540;18.784;2023-02-05T06:11:47;0.00;80.20
55777;DHT22;54079;44.540;18.784;2023-02-05T06:14:13;0.10;80.40
55777;DHT22;54079;44.540;18.784;2023-02-05T06:16:40;0.20;79.00
55777;DHT22;54079;44.540;18.784;2023-02-05T06:19:06;0.20;80.00
55777;DHT22;54079;44.540;18.784;2023-02-05T06:21:32;0.20;80.10
55777;DHT22;54079;44.540;18.784;2023-02-05T06:23:58;0.40;79.40
55777;DHT22;54079;44.540;18.784;2023-02-05T06:26:23;0.50;79.10
55777;DHT22;54079;44.540;18.784;2023-02-05T06:28:50;0.10;84.10
55777;DHT22;54079;44.540;18.784;2023-02-05T06:31:15;0.10;81.70
55777;DHT22;54079;44.540;18.784;2023-02-05T06:33:44;0.20;81.90
55777;DHT22;54079;44.540;18.784;2023-02-05T06:36:10;0.20;82.10
55777;DHT22;54079;44.540;18.784;2023-02-05T06:38:36;0.30;82.10
55777;DHT22;54079;44.540;18.784;2023-02-05T06:41:02;0.30;82.80
55777;DHT22;54079;44.540;18.784;2023-02-05T06:43:28;0.40;86.50
55777;DHT22;54079;44.540;18.784;2023-02-05T06:45:54;0.50;82.60
55777;DHT22;54079;44.540;18.784;2023-02-05T06:48:20;0.50;80.00
55777;DHT22;54079;44.540;18.784;2023-02-05T06:50:46;0.30;78.60
55777;DHT22;54079;44.540;18.784;2023-02-05T06:53:12;0.20;80.20
55777;DHT22;54079;44.540;18.784;2023-02-05T06:55:38;0.20;80.30
55777;DHT22;54079;44.540;18.784;2023-02-05T06:58:04;0.30;79.90
55777;DHT22;54079;44.540;18.784;2023-02-05T07:00:32;-0.10;78.70
55777;DHT22;54079;44.540;18.784;2023-02-05T07:02:58;0.00;80.20
55777;DHT22;54079;44.540;18.784;2023-02-05T07:05:24;0.10;78.50
55777;DHT22;54079;44.540;18.784;2023-02-05T07:07:50;0.20;76.00
55777;DHT22;54079;44.540;18.784;2023-02-05T07:10:16;0.20;74.20
55777;DHT22;54079;44.540;18.784;2023-02-05T07:12:43;0.10;74.40
55777;DHT22;54079;44.540;18.784;2023-02-05T07:15:09;0.00;75.60
55777;DHT22;54079;44.540;18.784;2023-02-05T07:17:35;0.00;77.30
55777;DHT22;54079;44.540;18.784;2023-02-05T07:20:01;0.00;73.70
55777;DHT22;54079;44.540;18.784;2023-02-05T07:22:27;0.20;73.80
55777;DHT22;54079;44.540;18.784;2023-02-05T07:24:53;0.30;72.50
55777;DHT22;54079;44.540;18.784;2023-02-05T07:27:19;0.40;72.40
55777;DHT22;54079;44.540;18.784;2023-02-05T07:29:46;0.20;68.90
55777;DHT22;54079;44.540;18.784;2023-02-05T07:32:12;0.40;73.10
55777;DHT22;54079;44.540;18.784;2023-02-05T07:34:38;0.50;71.40
55777;DHT22;54079;44.540;18.784;2023-02-05T07:37:04;0.60;67.60
55777;DHT22;54079;44.540;18.784;2023-02-05T07:39:30;0.70;69.20
55777;DHT22;54079;44.540;18.784;2023-02-05T07:41:58;0.80;67.60
55777;DHT22;54079;44.540;18.784;2023-02-05T07:44:24;1.00;66.80
55777;DHT22;54079;44.540;18.784;2023-02-05T07:46:50;1.10;64.80
55777;DHT22;54079;44.540;18.784;2023-02-05T07:49:16;1.20;67.40
55777;DHT22;54079;44.540;18.784;2023-02-05T07:51:42;1.20;66.30
55777;DHT22;54079;44.540;18.784;2023-02-05T07:54:09;1.20;64.50
55777;DHT22;54079;44.540;18.784;2023-02-05T07:56:39;1.30;64.40
55777;DHT22;54079;44.540;18.784;2023-02-05T07:59:05;1.00;62.30
55777;DHT22;54079;44.540;18.784;2023-02-05T08:01:32;1.00;64.90
55777;DHT22;54079;44.540;18.784;2023-02-05T08:03:58;1.20;65.80
55777;DHT22;54079;44.540;18.784;2023-02-05T08:06:24;1.20;64.60
55777;DHT22;54079;44.540;18.784;2023-02-05T08:08:50;1.20;62.40
55777;DHT22;54079;44.540;18.784;2023-02-05T08:11:17;0.80;60.00
55777;DHT22;54079;44.540;18.784;2023-02-05T08:13:44;0.90;61.10
55777;DHT22;54079;44.540;18.784;2023-02-05T08:16:11;0.90;62.30
55777;DHT22;54079;44.540;18.784;2023-02-05T08:18:37;1.20;60.70
55777;DHT22;54079;44.540;18.784;2023-02-05T08:21:03;1.30;60.30
55777;DHT22;54079;44.540;18.784;2023-02-05T08:23:30;1.20;59.70
55777;DHT22;54079;44.540;18.784;2023-02-05T08:25:57;1.50;61.00
55777;DHT22;54079;44.540;18.784;2023-02-05T08:28:24;1.60;59.10
55777;DHT22;54079;44.540;18.784;2023-02-05T08:30:51;1.40;57.90
55777;DHT22;54079;44.540;18.784;2023-02-05T08:33:17;1.40;57.50
55777;DHT22;54079;44.540;18.784;2023-02-05T08:35:43;1.80;59.70
55777;DHT22;54079;44.540;18.784;2023-02-05T08:38:08;2.20;58.90
55777;DHT22;54079;44.540;18.784;2023-02-05T08:40:35;2.30;59.60
55777;DHT22;54079;44.540;18.784;2023-02-05T08:43:01;2.60;59.20
55777;DHT22;54079;44.540;18.784;2023-02-05T08:45:28;2.50;58.60
55777;DHT22;54079;44.540;18.784;2023-02-05T08:47:54;2.50;58.70
55777;DHT22;54079;44.540;18.784;2023-02-05T08:50:21;2.50;56.10
55777;DHT22;54079;44.540;18.784;2023-02-05T08:52:47;2.60;59.40
55777;DHT22;54079;44.540;18.784;2023-02-05T08:55:14;2.80;58.50
55777;DHT22;54079;44.540;18.784;2023-02-05T08:57:43;2.80;57.10
55777;DHT22;54079;44.540;18.784;2023-02-05T09:00:09;2.90;56.10
55777;DHT22;54079;44.540;18.784;2023-02-05T09:02:35;2.90;54.50
55777;DHT22;54079;44.540;18.784;2023-02-05T09:05:01;3.00;55.70
55777;DHT22;54079;44.540;18.784;2023-02-05T09:07:28;3.10;56.00
55777;DHT22;54079;44.540;18.784;2023-02-05T09:09:54;2.70;56.60
55777;DHT22;54079;44.540;18.784;2023-02-05T09:12:20;2.70;55.00
55777;DHT22;54079;44.540;18.784;2023-02-05T09:14:46;2.90;55.50
55777;DHT22;54079;44.540;18.784;2023-02-05T09:17:15;2.60;55.80
55777;DHT22;54079;44.540;18.784;2023-02-05T09:19:42;2.70;55.50
55777;DHT22;54079;44.540;18.784;2023-02-05T09:22:08;2.40;54.70
55777;DHT22;54079;44.540;18.784;2023-02-05T09:24:36;2.20;55.10
55777;DHT22;54079;44.540;18.784;2023-02-05T09:27:02;2.10;58.50
55777;DHT22;54079;44.540;18.784;2023-02-05T09:29:29;2.50;57.20
55777;DHT22;54079;44.540;18.784;2023-02-05T09:31:55;3.30;57.00
55777;DHT22;54079;44.540;18.784;2023-02-05T09:34:22;4.30;54.50
55777;DHT22;54079;44.540;18.784;2023-02-05T09:36:47;4.30;55.30
55777;DHT22;54079;44.540;18.784;2023-02-05T09:39:14;4.50;54.80
55777;DHT22;54079;44.540;18.784;2023-02-05T09:41:58;4.40;53.10
55777;DHT22;54079;44.540;18.784;2023-02-05T09:44:38;4.50;54.50
55777;DHT22;54079;44.540;18.784;2023-02-05T10:35:23;1.10;56.50
55777;DHT22;54079;44.540;18.784;2023-02-05T10:37:54;3.20;55.20
55777;DHT22;54079;44.540;18.784;2023-02-05T10:40:27;3.40;53.20
55777;DHT22;54079;44.540;18.784;2023-02-05T10:43:21;3.40;52.80
55777;DHT22;54079;44.540;18.784;2023-02-05T10:45:51;3.50;52.30
55777;DHT22;54079;44.540;18.784;2023-02-05T10:53:28;3.70;53.00
55777;DHT22;54079;44.540;18.784;2023-02-05T10:55:56;3.60;52.50
55777;DHT22;54079;44.540;18.784;2023-02-05T11:01:18;3.10;52.00
55777;DHT22;54079;44.540;18.784;2023-02-05T11:06:21;3.20;53.70
55777;DHT22;54079;44.540;18.784;2023-02-05T11:08:48;3.20;53.10
55777;DHT22;54079;44.540;18.784;2023-02-05T11:11:26;3.30;52.60
55777;DHT22;54079;44.540;18.784;2023-02-05T11:13:57;3.40;53.50
55777;DHT22;54079;44.540;18.784;2023-02-05T11:16:42;3.40;52.50
55777;DHT22;54079;44.540;18.784;2023-02-05T11:19:19;2.90;51.60
55777;DHT22;54079;44.540;18.784;2023-02-05T11:24:26;2.90;53.30
55777;DHT22;54079;44.540;18.784;2023-02-05T11:27:26;2.80;53.60
55777;DHT22;54079;44.540;18.784;2023-02-05T11:29:54;2.70;53.60
55777;DHT22;54079;44.540;18.784;2023-02-05T11:32:38;2.50;51.90
55777;DHT22;54079;44.540;18.784;2023-02-05T11:35:30;2.60;52.60
55777;DHT22;54079;44.540;18.784;2023-02-05T11:38:09;2.80;52.90
55777;DHT22;54079;44.540;18.784;2023-02-05T11:40:39;2.40;51.90
55777;DHT22;54079;44.540;18.784;2023-02-05T11:45:49;2.70;55.00
55777;DHT22;54079;44.540;18.784;2023-02-05T11:51:00;2.90;54.50
55777;DHT22;54079;44.540;18.784;2023-02-05T11:53:26;2.90;54.10
55777;DHT22;54079;44.540;18.784;2023-02-05T11:56:01;3.00;54.40
55777;DHT22;54079;44.540;18.784;2023-02-05T11:58:29;3.20;54.20
55777;DHT22;54079;44.540;18.784;2023-02-05T12:01:00;3.20;53.00
55777;DHT22;54079;44.540;18.784;2023-02-05T12:03:29;3.20;54.90
55777;DHT22;54079;44.540;18.784;2023-02-05T12:11:34;3.00;53.40
55777;DHT22;54079;44.540;18.784;2023-02-05T12:15:08;3.20;54.40
55777;DHT22;54079;44.540;18.784;2023-02-05T12:20:32;3.40;55.70
55777;DHT22;54079;44.540;18.784;2023-02-05T12:26:04;3.30;55.60
55777;DHT22;54079;44.540;18.784;2023-02-05T12:35:00;2.50;55.90
55777;DHT22;54079;44.540;18.784;2023-02-05T12:37:25;2.60;55.20
55777;DHT22;54079;44.540;18.784;2023-02-05T12:40:12;2.60;53.60
55777;DHT22;54079;44.540;18.784;2023-02-05T12:42:59;2.50;54.50
55777;DHT22;54079;44.540;18.784;2023-02-05T12:48:27;2.50;53.40
55777;DHT22;54079;44.540;18.784;2023-02-05T12:51:05;2.70;51.90
55777;DHT22;54079;44.540;18.784;2023-02-05T12:56:41;2.70;54.40
55777;DHT22;54079;44.540;18.784;2023-02-05T13:01:43;2.70;55.20
55777;DHT22;54079;44.540;18.784;2023-02-05T13:04:24;2.60;56.00
55777;DHT22;54079;44.540;18.784;2023-02-05T13:06:57;2.50;56.00
55777;DHT22;54079;44.540;18.784;2023-02-05T13:09:32;2.40;58.00
55777;DHT22;54079;44.540;18.784;2023-02-05T13:12:07;2.10;58.10
55777;DHT22;54079;44.540;18.784;2023-02-05T13:14:41;2.30;58.00
55777;DHT22;54079;44.540;18.784;2023-02-05T13:17:28;2.20;58.70
55777;DHT22;54079;44.540;18.784;2023-02-05T13:20:00;2.20;57.70
55777;DHT22;54079;44.540;18.784;2023-02-05T13:22:37;2.30;57.30
55777;DHT22;54079;44.540;18.784;2023-02-05T13:25:41;2.40;57.80
55777;DHT22;54079;44.540;18.784;2023-02-05T13:33:42;2.20;59.00
55777;DHT22;54079;44.540;18.784;2023-02-05T13:50:32;2.50;55.70
55777;DHT22;54079;44.540;18.784;2023-02-05T13:58:58;2.80;56.40
55777;DHT22;54079;44.540;18.784;2023-02-05T14:01:27;3.00;55.00
55777;DHT22;54079;44.540;18.784;2023-02-05T14:06:41;2.90;53.90
55777;DHT22;54079;44.540;18.784;2023-02-05T14:09:09;3.00;54.50
55777;DHT22;54079;44.540;18.784;2023-02-05T14:11:54;2.90;52.60
55777;DHT22;54079;44.540;18.784;2023-02-05T14:14:30;3.00;55.30
55777;DHT22;54079;44.540;18.784;2023-02-05T14:16:59;3.10;52.60
55777;DHT22;54079;44.540;18.784;2023-02-05T14:22:11;2.70;52.90
55777;DHT22;54079;44.540;18.784;2023-02-05T14:24:56;2.60;52.20
55777;DHT22;54079;44.540;18.784;2023-02-05T14:29:51;2.60;53.70
55777;DHT22;54079;44.540;18.784;2023-02-05T14:40:08;2.80;53.80
55777;DHT22;54079;44.540;18.784;2023-02-05T14:42:36;2.80;54.80
55777;DHT22;54079;44.540;18.784;2023-02-05T14:45:02;2.70;54.20
55777;DHT22;54079;44.540;18.784;2023-02-05T14:47:34;2.50;55.40
55777;DHT22;54079;44.540;18.784;2023-02-05T14:50:25;2.50;53.60
55777;DHT22;54079;44.540;18.784;2023-02-05T14:52:59;2.40;53.70
55777;DHT22;54079;44.540;18.784;2023-02-05T14:55:39;2.50;55.20
55777;DHT22;54079;44.540;18.784;2023-02-05T14:58:35;2.60;55.70
55777;DHT22;54079;44.540;18.784;2023-02-05T15:04:00;2.10;53.20
55777;DHT22;54079;44.540;18.784;2023-02-05T15:06:28;2.10;54.90
55777;DHT22;54079;44.540;18.784;2023-02-05T15:09:11;2.00;55.30
55777;DHT22;54079;44.540;18.784;2023-02-05T15:12:30;2.00;55.00
55777;DHT22;54079;44.540;18.784;2023-02-05T15:14:59;1.90;53.60
55777;DHT22;54079;44.540;18.784;2023-02-05T15:17:48;2.10;55.10
55777;DHT22;54079;44.540;18.784;2023-02-05T15:20:27;2.10;55.60
55777;DHT22;54079;44.540;18.784;2023-02-05T15:26:02;2.10;54.70
55777;DHT22;54079;44.540;18.784;2023-02-05T15:28:44;1.80;55.30
55777;DHT22;54079;44.540;18.784;2023-02-05T15:31:42;1.70;55.20
55777;DHT22;54079;44.540;18.784;2023-02-05T15:37:30;1.70;56.60
55777;DHT22;54079;44.540;18.784;2023-02-05T15:42:48;1.50;54.80
55777;DHT22;54079;44.540;18.784;2023-02-05T15:50:27;1.60;55.90
55777;DHT22;54079;44.540;18.784;2023-02-05T15:52:55;1.60;56.90
55777;DHT22;54079;44.540;18.784;2023-02-05T15:55:22;1.60;56.20
55777;DHT22;54079;44.540;18.784;2023-02-05T15:57:58;1.70;56.10
55777;DHT22;54079;44.540;18.784;2023-02-05T16:00:28;1.70;57.20
55777;DHT22;54079;44.540;18.784;2023-02-05T16:03:02;1.70;57.00
55777;DHT22;54079;44.540;18.784;2023-02-05T16:05:31;1.70;56.90
55777;DHT22;54079;44.540;18.784;2023-02-05T16:07:57;1.60;57.00
55777;DHT22;54079;44.540;18.784;2023-02-05T16:10:31;1.60;57.20
55777;DHT22;54079;44.540;18.784;2023-02-05T16:13:11;1.70;58.40
55777;DHT22;54079;44.540;18.784;2023-02-05T16:21:07;1.80;58.00
55777;DHT22;54079;44.540;18.784;2023-02-05T16:23:46;1.80;58.30
55777;DHT22;54079;44.540;18.784;2023-02-05T16:26:25;1.80;59.50
55777;DHT22;54079;44.540;18.784;2023-02-05T16:28:59;1.70;59.10
55777;DHT22;54079;44.540;18.784;2023-02-05T16:31:27;1.70;59.90
55777;DHT22;54079;44.540;18.784;2023-02-05T16:34:14;1.60;59.70
55777;DHT22;54079;44.540;18.784;2023-02-05T16:36:47;1.60;60.20
55777;DHT22;54079;44.540;18.784;2023-02-05T16:39:24;1.50;61.70
55777;DHT22;54079;44.540;18.784;2023-02-05T16:42:07;1.50;61.50
55777;DHT22;54079;44.540;18.784;2023-02-05T16:44:38;1.70;61.30
55777;DHT22;54079;44.540;18.784;2023-02-05T16:47:18;1.60;61.00
55777;DHT22;54079;44.540;18.784;2023-02-05T16:49:46;1.50;61.00
55777;DHT22;54079;44.540;18.784;2023-02-05T16:52:44;1.50;60.90
55777;DHT22;54079;44.540;18.784;2023-02-05T16:57:52;1.60;61.20
55777;DHT22;54079;44.540;18.784;2023-02-05T17:00:21;1.60;60.90
55777;DHT22;54079;44.540;18.784;2023-02-05T17:02:52;1.60;61.90
55777;DHT22;54079;44.540;18.784;2023-02-05T17:05:31;1.70;61.70
55777;DHT22;54079;44.540;18.784;2023-02-05T17:08:06;1.60;61.00
55777;DHT22;54079;44.540;18.784;2023-02-05T17:10:58;1.70;61.50
55777;DHT22;54079;44.540;18.784;2023-02-05T17:15:53;1.80;61.20
55777;DHT22;54079;44.540;18.784;2023-02-05T17:18:27;1.70;61.50
55777;DHT22;54079;44.540;18.784;2023-02-05T17:21:20;1.70;62.50
55777;DHT22;54079;44.540;18.784;2023-02-05T17:23:48;1.70;61.90
55777;DHT22;54079;44.540;18.784;2023-02-05T17:26:15;1.70;61.00
55777;DHT22;54079;44.540;18.784;2023-02-05T17:28:42;1.70;61.50
55777;DHT22;54079;44.540;18.784;2023-02-05T17:31:11;1.60;61.10
55777;DHT22;54079;44.540;18.784;2023-02-05T17:33:38;1.70;62.20
55777;DHT22;54079;44.540;18.784;2023-02-05T17:36:04;1.70;62.00
55777;DHT22;54079;44.540;18.784;2023-02-05T17:38:30;1.70;61.30
55777;DHT22;54079;44.540;18.784;2023-02-05T17:40:56;1.70;61.50
55777;DHT22;54079;44.540;18.784;2023-02-05T17:43:41;1.70;61.30
55777;DHT22;54079;44.540;18.784;2023-02-05T17:46:12;1.60;61.90
55777;DHT22;54079;44.540;18.784;2023-02-05T17:48:41;1.60;63.10
55777;DHT22;54079;44.540;18.784;2023-02-05T17:51:19;1.60;62.90
55777;DHT22;54079;44.540;18.784;2023-02-05T17:53:47;1.60;62.00
55777;DHT22;54079;44.540;18.784;2023-02-05T17:56:13;1.60;62.00
55777;DHT22;54079;44.540;18.784;2023-02-05T17:58:39;1.60;61.60
55777;DHT22;54079;44.540;18.784;2023-02-05T18:01:06;1.60;63.00
55777;DHT22;54079;44.540;18.784;2023-02-05T18:03:33;1.50;62.20
55777;DHT22;54079;44.540;18.784;2023-02-05T18:05:59;1.60;60.90
55777;DHT22;54079;44.540;18.784;2023-02-05T18:08:25;1.60;62.90
55777;DHT22;54079;44.540;18.784;2023-02-05T18:10:51;1.60;62.20
55777;DHT22;54079;44.540;18.784;2023-02-05T18:13:17;1.70;61.40
55777;DHT22;54079;44.540;18.784;2023-02-05T18:15:43;1.70;61.50
55777;DHT22;54079;44.540;18.784;2023-02-05T18:18:09;1.70;62.60
55777;DHT22;54079;44.540;18.784;2023-02-05T18:20:36;1.80;62.40
55777;DHT22;54079;44.540;18.784;2023-02-05T18:23:03;1.80;61.60
55777;DHT22;54079;44.540;18.784;2023-02-05T18:25:29;1.90;60.50
55777;DHT22;54079;44.540;18.784;2023-02-05T18:27:55;1.90;60.50
55777;DHT22;54079;44.540;18.784;2023-02-05T18:30:21;1.80;60.40
55777;DHT22;54079;44.540;18.784;2023-02-05T18:32:47;1.90;60.40
55777;DHT22;54079;44.540;18.784;2023-02-05T18:35:13;1.90;61.00
55777;DHT22;54079;44.540;18.784;2023-02-05T18:37:40;1.70;62.30
55777;DHT22;54079;44.540;18.784;2023-02-05T18:40:07;1.60;60.90
55777;DHT22;54079;44.540;18.784;2023-02-05T18:42:33;1.40;61.60
55777;DHT22;54079;44.540;18.784;2023-02-05T18:44:59;1.40;62.00
55777;DHT22;54079;44.540;18.784;2023-02-05T18:47:25;1.30;62.40
55777;DHT22;54079;44.540;18.784;2023-02-05T18:49:51;1.30;62.40
55777;DHT22;54079;44.540;18.784;2023-02-05T18:52:17;1.30;62.60
55777;DHT22;54079;44.540;18.784;2023-02-05T18:54:44;1.40;62.60